Time,TemperatureF,DewpointF,PressureIn,WindDirection,WindDirectionDegrees,WindSpeedMPH,WindSpeedGustMPH,Humidity,HourlyPrecipIn,Conditions,Clouds,dailyrainin,SoftwareType,DateUTC
2013-05-15 00:03:00,39.6,34.8,29.41,West,270,0.0,0.0,83,0.00,,,0.00,WUHU216HW,2013-05-14 23:03:00,
2013-05-15 00:08:00,39.4,35.0,29.41,WNW,293,0.0,0.0,84,0.00,,,0.00,WUHU216HW,2013-05-14 23:08:00,
2013-05-15 00:13:00,39.4,35.0,29.41,WNW,293,0.4,0.4,84,0.00,,,0.00,WUHU216HW,2013-05-14 23:13:00,
2013-05-15 00:18:00,39.2,34.8,29.41,WNW,293,0.0,0.4,84,0.00,,,0.00,WUHU216HW,2013-05-14 23:18:00,
2013-05-15 00:23:00,39.1,34.7,29.41,WNW,293,0.0,0.4,84,0.00,,,0.00,WUHU216HW,2013-05-14 23:23:00,
2013-05-15 00:28:00,38.9,34.5,29.40,WNW,293,0.0,0.0,84,0.00,,,0.00,WUHU216HW,2013-05-14 23:28:00,
2013-05-15 00:33:00,38.7,34.3,29.40,WNW,293,0.7,0.7,84,0.00,,,0.00,WUHU216HW,2013-05-14 23:33:00,
2013-05-15 00:38:00,38.5,34.1,29.40,WNW,293,0.0,0.7,84,0.00,,,0.00,WUHU216HW,2013-05-14 23:38:00,
2013-05-15 00:43:00,38.7,34.6,29.40,WNW,293,0.0,0.0,85,0.00,,,0.00,WUHU216HW,2013-05-14 23:43:00,
2013-05-15 00:48:00,38.7,34.6,29.40,WNW,293,0.0,0.0,85,0.00,,,0.00,WUHU216HW,2013-05-14 23:48:00,
2013-05-15 00:53:00,38.5,34.1,29.40,West,270,0.4,0.4,84,0.00,,,0.00,WUHU216HW,2013-05-14 23:53:00,
2013-05-15 00:58:00,38.5,34.4,29.40,SSE,158,0.4,0.4,85,0.00,,,0.00,WUHU216HW,2013-05-14 23:58:00,
2013-05-15 01:03:00,38.5,34.4,29.40,SSE,158,0.0,0.4,85,0.00,,,0.00,WUHU216HW,2013-05-15 00:03:00,
2013-05-15 01:08:00,38.2,34.0,29.40,SSE,158,0.0,0.4,85,0.00,,,0.00,WUHU216HW,2013-05-15 00:08:00,
2013-05-15 01:13:00,37.8,33.7,29.40,SSE,158,0.0,0.0,85,0.00,,,0.00,WUHU216HW,2013-05-15 00:13:00,
2013-05-15 01:18:00,37.8,33.7,29.40,SSE,158,0.0,0.0,85,0.00,,,0.00,WUHU216HW,2013-05-15 00:18:00,
2013-05-15 01:23:00,37.4,33.3,29.39,SSE,158,0.0,0.0,85,0.00,,,0.00,WUHU216HW,2013-05-15 00:23:00,
2013-05-15 01:28:00,37.3,33.4,29.39,SSE,158,0.0,0.0,86,0.00,,,0.00,WUHU216HW,2013-05-15 00:28:00,
2013-05-15 01:33:00,37.4,33.6,29.39,SSE,158,0.0,0.0,86,0.00,,,0.00,WUHU216HW,2013-05-15 00:33:00,
2013-05-15 01:38:00,37.4,33.6,29.39,SSE,158,0.0,0.0,86,0.00,,,0.00,WUHU216HW,2013-05-15 00:38:00,
2013-05-15 01:43:00,37.3,33.7,29.39,SSE,158,0.0,0.0,87,0.00,,,0.00,WUHU216HW,2013-05-15 00:43:00,
2013-05-15 01:48:00,37.3,33.7,29.39,SSE,158,0.0,0.0,87,0.00,,,0.00,WUHU216HW,2013-05-15 00:48:00,
2013-05-15 01:53:00,37.3,33.7,29.39,SSE,158,0.0,0.0,87,0.00,,,0.00,WUHU216HW,2013-05-15 00:53:00,
2013-05-15 01:58:00,37.1,33.5,29.39,SSE,158,0.0,0.0,87,0.00,,,0.00,WUHU216HW,2013-05-15 00:58:00,
2013-05-15 02:03:00,36.9,33.3,29.39,SSE,158,0.0,0.0,87,0.00,,,0.00,WUHU216HW,2013-05-15 01:03:00,
2013-05-15 02:08:00,37.1,33.5,29.39,SSE,158,0.0,0.0,87,0.00,,,0.00,WUHU216HW,2013-05-15 01:08:00,
2013-05-15 02:13:00,37.1,33.5,29.38,SSE,158,0.0,0.0,87,0.00,,,0.00,WUHU216HW,2013-05-15 01:13:00,
2013-05-15 02:18:00,36.9,33.3,29.38,SSE,158,0.0,0.0,87,0.00,,,0.00,WUHU216HW,2013-05-15 01:18:00,
2013-05-15 02:23:00,36.7,33.1,29.38,SSE,158,0.0,0.0,87,0.00,,,0.00,WUHU216HW,2013-05-15 01:23:00,
2013-05-15 02:28:00,36.7,33.1,29.38,SSE,158,0.0,0.0,87,0.00,,,0.00,WUHU216HW,2013-05-15 01:28:00,
2013-05-15 02:33:00,36.7,33.1,29.38,SSE,158,0.0,0.0,87,0.00,,,0.00,WUHU216HW,2013-05-15 01:33:00,
2013-05-15 02:38:00,37.1,33.5,29.38,SSE,158,0.0,0.0,87,0.00,,,0.00,WUHU216HW,2013-05-15 01:38:00,
2013-05-15 02:43:00,37.3,34.0,29.38,SE,135,0.4,0.4,88,0.00,,,0.00,WUHU216HW,2013-05-15 01:43:00,
2013-05-15 02:48:00,37.4,34.5,29.38,SE,135,0.0,0.4,89,0.00,,,0.00,WUHU216HW,2013-05-15 01:48:00,
2013-05-15 02:53:00,37.1,33.9,29.38,SE,135,0.4,0.4,88,0.00,,,0.00,WUHU216HW,2013-05-15 01:53:00,
2013-05-15 02:58:00,37.1,33.5,29.38,SE,135,0.0,0.4,87,0.00,,,0.00,WUHU216HW,2013-05-15 01:58:00,
2013-05-15 03:03:00,36.9,33.7,29.38,SE,135,0.0,0.4,88,0.00,,,0.00,WUHU216HW,2013-05-15 02:03:00,
2013-05-15 03:08:00,36.7,33.1,29.38,SE,135,0.0,0.0,87,0.00,,,0.00,WUHU216HW,2013-05-15 02:08:00,
2013-05-15 03:13:00,36.7,33.1,29.38,SE,135,0.0,0.0,87,0.00,,,0.00,WUHU216HW,2013-05-15 02:13:00,
2013-05-15 03:18:00,36.7,33.1,29.38,SE,135,0.2,0.2,87,0.00,,,0.00,WUHU216HW,2013-05-15 02:18:00,
2013-05-15 03:23:00,36.7,33.1,29.38,SE,135,0.4,0.4,87,0.00,,,0.00,WUHU216HW,2013-05-15 02:23:00,
2013-05-15 03:28:00,36.7,33.1,29.38,SE,135,1.1,1.1,87,0.00,,,0.00,WUHU216HW,2013-05-15 02:28:00,
2013-05-15 03:33:00,36.7,33.1,29.39,SE,135,0.4,1.1,87,0.00,,,0.00,WUHU216HW,2013-05-15 02:33:00,
2013-05-15 03:38:00,36.7,33.1,29.38,SE,135,0.0,1.1,87,0.00,,,0.00,WUHU216HW,2013-05-15 02:38:00,
2013-05-15 03:43:00,36.7,33.5,29.39,ESE,113,0.2,1.1,88,0.00,,,0.00,WUHU216HW,2013-05-15 02:43:00,
2013-05-15 03:48:00,36.7,33.5,29.38,ESE,113,0.0,1.1,88,0.00,,,0.00,WUHU216HW,2013-05-15 02:48:00,
2013-05-15 03:53:00,36.7,33.1,29.38,ESE,113,0.0,0.2,87,0.00,,,0.00,WUHU216HW,2013-05-15 02:53:00,
2013-05-15 03:58:00,36.5,32.9,29.38,ESE,113,0.7,1.1,87,0.00,,,0.00,WUHU216HW,2013-05-15 02:58:00,
2013-05-15 04:03:00,36.4,32.8,29.38,SSW,203,0.0,1.1,87,0.00,,,0.00,WUHU216HW,2013-05-15 03:03:00,
2013-05-15 04:08:00,36.4,32.8,29.38,SW,225,0.4,0.7,87,0.00,,,0.00,WUHU216HW,2013-05-15 03:08:00,
2013-05-15 04:13:00,36.4,33.1,29.37,SE,135,0.4,1.1,88,0.00,,,0.00,WUHU216HW,2013-05-15 03:13:00,
2013-05-15 04:18:00,36.4,33.1,29.37,SSE,158,0.0,1.1,88,0.00,,,0.00,WUHU216HW,2013-05-15 03:18:00,
2013-05-15 04:23:00,37.8,35.1,29.37,North,0,1.6,1.6,90,0.00,,,0.00,WUHU216HW,2013-05-15 03:23:00,
2013-05-15 04:28:00,39.2,36.5,29.37,NW,315,1.1,1.6,90,0.00,,,0.00,WUHU216HW,2013-05-15 03:28:00,
2013-05-15 04:33:00,40.5,36.9,29.37,NW,315,1.3,1.6,87,0.00,,,0.00,WUHU216HW,2013-05-15 03:33:00,
2013-05-15 04:38:00,40.7,36.8,29.37,SW,225,0.9,1.3,86,0.00,,,0.00,WUHU216HW,2013-05-15 03:38:00,
2013-05-15 04:43:00,40.9,36.6,29.37,ENE,68,1.8,1.8,85,0.00,,,0.00,WUHU216HW,2013-05-15 03:43:00,
2013-05-15 04:48:00,41.0,36.6,29.37,North,0,0.9,1.8,84,0.00,,,0.00,WUHU216HW,2013-05-15 03:48:00,
2013-05-15 04:53:00,41.0,36.6,29.37,NNW,338,0.9,1.8,84,0.00,,,0.00,WUHU216HW,2013-05-15 03:53:00,
2013-05-15 04:58:00,41.0,36.6,29.37,NNW,338,0.4,0.9,84,0.00,,,0.00,WUHU216HW,2013-05-15 03:58:00,
2013-05-15 05:03:00,41.0,36.6,29.37,North,0,0.0,0.9,84,0.00,,,0.00,WUHU216HW,2013-05-15 04:03:00,
2013-05-15 05:08:00,41.0,36.2,29.37,NNW,338,0.7,0.7,83,0.00,,,0.00,WUHU216HW,2013-05-15 04:08:00,
2013-05-15 05:13:00,41.0,36.2,29.37,NNW,338,0.7,0.7,83,0.00,,,0.00,WUHU216HW,2013-05-15 04:13:00,
2013-05-15 05:18:00,41.4,36.3,29.38,NW,315,0.4,0.7,82,0.00,,,0.00,WUHU216HW,2013-05-15 04:18:00,
2013-05-15 05:23:00,41.4,36.5,29.37,WNW,293,2.9,2.9,83,0.00,,,0.00,WUHU216HW,2013-05-15 04:23:00,
2013-05-15 05:28:00,41.4,36.3,29.37,WNW,293,1.6,2.9,82,0.00,,,0.00,WUHU216HW,2013-05-15 04:28:00,
2013-05-15 05:33:00,41.4,36.3,29.37,NW,315,1.1,1.6,82,0.00,,,0.00,WUHU216HW,2013-05-15 04:33:00,
2013-05-15 05:38:00,41.6,36.5,29.37,NW,315,1.1,1.6,82,0.00,,,0.00,WUHU216HW,2013-05-15 04:38:00,
2013-05-15 05:43:00,41.9,36.5,29.38,NNW,338,0.2,1.1,81,0.00,,,0.00,WUHU216HW,2013-05-15 04:43:00,
2013-05-15 05:48:00,42.1,36.6,29.38,WSW,248,0.4,0.9,81,0.00,,,0.00,WUHU216HW,2013-05-15 04:48:00,
2013-05-15 05:53:00,41.9,36.5,29.38,NE,45,0.4,0.4,81,0.00,,,0.00,WUHU216HW,2013-05-15 04:53:00,
2013-05-15 05:58:00,41.9,36.5,29.38,North,0,1.1,1.1,81,0.00,,,0.00,WUHU216HW,2013-05-15 04:58:00,
2013-05-15 06:03:00,42.1,36.6,29.38,NNW,338,1.1,1.6,81,0.00,,,0.00,WUHU216HW,2013-05-15 05:03:00,
2013-05-15 06:08:00,42.1,36.4,29.38,NW,315,1.1,1.6,80,0.00,,,0.00,WUHU216HW,2013-05-15 05:08:00,
2013-05-15 06:13:00,42.1,36.4,29.38,NNE,23,0.4,1.1,80,0.00,,,0.00,WUHU216HW,2013-05-15 05:13:00,
2013-05-15 06:18:00,42.1,36.4,29.38,NW,315,1.1,1.1,80,0.00,,,0.00,WUHU216HW,2013-05-15 05:18:00,
2013-05-15 06:23:00,42.1,36.6,29.38,North,0,0.9,1.1,81,0.00,,,0.00,WUHU216HW,2013-05-15 05:23:00,
2013-05-15 06:28:00,42.1,36.6,29.38,NNE,23,1.8,1.8,81,0.00,,,0.00,WUHU216HW,2013-05-15 05:28:00,
2013-05-15 06:33:00,42.3,36.8,29.38,NNW,338,1.8,1.8,81,0.00,,,0.00,WUHU216HW,2013-05-15 05:33:00,
2013-05-15 06:38:00,42.5,37.0,29.38,NNW,338,1.1,1.8,81,0.00,,,0.00,WUHU216HW,2013-05-15 05:38:00,
2013-05-15 06:43:00,42.7,36.9,29.38,NW,315,1.3,1.3,80,0.00,,,0.00,WUHU216HW,2013-05-15 05:43:00,
2013-05-15 06:48:00,42.8,37.1,29.38,WNW,293,1.1,1.3,80,0.00,,,0.00,WUHU216HW,2013-05-15 05:48:00,
2013-05-15 06:53:00,43.0,37.3,29.37,NW,315,1.6,1.6,80,0.00,,,0.00,WUHU216HW,2013-05-15 05:53:00,
2013-05-15 06:58:00,43.0,37.3,29.38,WNW,293,0.4,1.6,80,0.00,,,0.00,WUHU216HW,2013-05-15 05:58:00,
2013-05-15 07:03:00,43.0,36.9,29.38,WNW,293,0.0,1.6,79,0.00,,,0.00,WUHU216HW,2013-05-15 06:03:00,
2013-05-15 07:08:00,43.0,37.3,29.38,NW,315,0.9,0.9,80,0.00,,,0.00,WUHU216HW,2013-05-15 06:08:00,
2013-05-15 07:13:00,43.2,37.1,29.38,West,270,0.4,1.8,79,0.00,,,0.00,WUHU216HW,2013-05-15 06:13:00,
2013-05-15 07:18:00,43.4,37.3,29.38,NW,315,0.4,1.8,79,0.00,,,0.00,WUHU216HW,2013-05-15 06:18:00,
2013-05-15 07:23:00,43.6,37.4,29.38,WNW,293,2.2,2.2,79,0.00,,,0.00,WUHU216HW,2013-05-15 06:23:00,
2013-05-15 07:28:00,43.9,37.8,29.38,NNW,338,0.2,2.5,79,0.00,,,0.00,WUHU216HW,2013-05-15 06:28:00,
2013-05-15 07:33:00,44.3,38.2,29.38,SW,225,0.4,2.5,79,0.00,,,0.00,WUHU216HW,2013-05-15 06:33:00,
2013-05-15 07:38:00,44.5,38.3,29.38,SE,135,1.3,1.3,79,0.00,,,0.00,WUHU216HW,2013-05-15 06:38:00,
2013-05-15 07:43:00,44.6,38.5,29.37,South,180,0.4,1.3,79,0.00,,,0.00,WUHU216HW,2013-05-15 06:43:00,
2013-05-15 07:48:00,44.8,38.7,29.38,WNW,293,2.5,2.5,79,0.00,,,0.00,WUHU216HW,2013-05-15 06:48:00,
2013-05-15 07:53:00,45.0,38.3,29.37,SSW,203,0.7,2.5,77,0.00,,,0.00,WUHU216HW,2013-05-15 06:53:00,
2013-05-15 07:58:00,45.5,39.1,29.37,WNW,293,1.1,2.5,78,0.00,,,0.00,WUHU216HW,2013-05-15 06:58:00,
2013-05-15 08:03:00,47.0,39.8,29.37,South,180,1.1,1.1,76,0.00,,,0.00,WUHU216HW,2013-05-15 07:03:00,
2013-05-15 08:08:00,47.7,40.8,29.37,WNW,293,3.4,3.4,77,0.00,,,0.00,WUHU216HW,2013-05-15 07:08:00,
2013-05-15 08:13:00,48.6,41.0,29.37,WNW,293,1.3,3.4,75,0.00,,,0.00,WUHU216HW,2013-05-15 07:13:00,
2013-05-15 08:18:00,49.0,41.0,29.37,SW,225,1.1,3.4,74,0.00,,,0.00,WUHU216HW,2013-05-15 07:18:00,
2013-05-15 08:23:00,48.6,39.6,29.37,NW,315,1.8,2.2,71,0.00,,,0.00,WUHU216HW,2013-05-15 07:23:00,
2013-05-15 08:28:00,48.4,39.1,29.37,ENE,68,0.9,2.2,70,0.00,,,0.00,WUHU216HW,2013-05-15 07:28:00,
2013-05-15 08:33:00,48.6,40.0,29.38,SSE,158,2.2,2.2,72,0.00,,,0.00,WUHU216HW,2013-05-15 07:33:00,
2013-05-15 08:38:00,48.2,39.3,29.38,WNW,293,0.7,2.2,71,0.00,,,0.00,WUHU216HW,2013-05-15 07:38:00,
2013-05-15 08:43:00,49.0,40.6,29.37,SSE,158,2.0,2.2,73,0.00,,,0.00,WUHU216HW,2013-05-15 07:43:00,
2013-05-15 08:49:00,48.8,39.1,29.38,ESE,113,0.9,2.0,69,0.00,,,0.00,WUHU216HW,2013-05-15 07:49:00,
2013-05-15 08:54:00,48.6,39.6,29.38,South,180,3.1,3.1,71,0.00,,,0.00,WUHU216HW,2013-05-15 07:54:00,
2013-05-15 08:59:00,51.1,42.8,29.37,ESE,113,2.9,3.1,73,0.00,,,0.00,WUHU216HW,2013-05-15 07:59:00,
2013-05-15 09:04:00,53.6,43.8,29.38,WNW,293,3.4,3.4,69,0.00,,,0.00,WUHU216HW,2013-05-15 08:04:00,
2013-05-15 09:09:00,54.7,44.4,29.37,SSE,158,3.6,3.6,68,0.00,,,0.00,WUHU216HW,2013-05-15 08:09:00,
2013-05-15 09:14:00,56.0,43.9,29.37,ESE,113,1.8,3.6,64,0.00,,,0.00,WUHU216HW,2013-05-15 08:14:00,
2013-05-15 09:19:00,52.7,40.4,29.37,ENE,68,0.4,3.6,63,0.00,,,0.00,WUHU216HW,2013-05-15 08:19:00,
2013-05-15 09:24:00,52.0,40.6,29.37,NW,315,1.1,1.8,65,0.00,,,0.00,WUHU216HW,2013-05-15 08:24:00,
2013-05-15 09:29:00,52.2,40.3,29.37,SE,135,1.8,1.8,64,0.00,,,0.00,WUHU216HW,2013-05-15 08:29:00,
2013-05-15 09:34:00,54.7,43.1,29.37,NW,315,2.0,2.0,65,0.00,,,0.00,WUHU216HW,2013-05-15 08:34:00,
2013-05-15 09:39:00,55.1,42.7,29.37,SE,135,1.3,2.0,63,0.00,,,0.00,WUHU216HW,2013-05-15 08:39:00,
2013-05-15 09:44:00,55.4,42.2,29.37,ESE,113,2.0,2.0,61,0.00,,,0.00,WUHU216HW,2013-05-15 08:44:00,
2013-05-15 09:49:00,55.1,41.4,29.37,ESE,113,0.7,2.0,60,0.00,,,0.00,WUHU216HW,2013-05-15 08:49:00,
2013-05-15 09:54:00,52.9,39.8,29.37,NW,315,4.0,4.0,61,0.00,,,0.00,WUHU216HW,2013-05-15 08:54:00,
2013-05-15 09:59:00,51.5,38.9,29.37,South,180,0.7,4.0,62,0.00,,,0.00,WUHU216HW,2013-05-15 08:59:00,
2013-05-15 10:04:00,50.9,38.3,29.37,SE,135,1.3,4.0,62,0.00,,,0.00,WUHU216HW,2013-05-15 09:04:00,
2013-05-15 10:09:00,50.9,38.3,29.37,WSW,248,1.8,1.8,62,0.00,,,0.00,WUHU216HW,2013-05-15 09:09:00,
2013-05-15 10:14:00,50.0,38.4,29.36,East,90,3.4,5.4,64,0.00,,,0.00,WUHU216HW,2013-05-15 09:14:00,
2013-05-15 10:19:00,50.4,38.6,29.36,NNW,338,4.3,5.4,64,0.00,,,0.00,WUHU216HW,2013-05-15 09:19:00,
2013-05-15 10:24:00,50.9,39.2,29.36,NW,315,1.8,4.3,64,0.00,,,0.00,WUHU216HW,2013-05-15 09:24:00,
2013-05-15 10:29:00,51.5,39.7,29.36,NW,315,2.2,4.3,64,0.00,,,0.00,WUHU216HW,2013-05-15 09:29:00,
2013-05-15 10:34:00,52.7,40.9,29.36,NW,315,2.9,2.9,64,0.00,,,0.00,WUHU216HW,2013-05-15 09:34:00,
2013-05-15 10:39:00,53.8,40.7,29.36,NW,315,1.6,2.9,61,0.00,,,0.00,WUHU216HW,2013-05-15 09:39:00,
2013-05-15 10:44:00,53.5,40.3,29.36,NNW,338,1.8,2.9,61,0.00,,,0.00,WUHU216HW,2013-05-15 09:44:00,
2013-05-15 10:49:00,52.2,38.3,29.35,WNW,293,1.3,1.8,59,0.00,,,0.00,WUHU216HW,2013-05-15 09:49:00,
2013-05-15 10:54:00,51.5,38.4,29.35,SSE,158,1.1,1.8,61,0.00,,,0.00,WUHU216HW,2013-05-15 09:54:00,
2013-05-15 10:59:00,51.7,38.6,29.34,NE,45,0.9,1.8,61,0.00,,,0.00,WUHU216HW,2013-05-15 09:59:00,
2013-05-15 11:04:00,51.8,38.8,29.34,East,90,1.1,1.1,61,0.00,,,0.00,WUHU216HW,2013-05-15 10:04:00,
2013-05-15 11:09:00,52.2,39.2,29.34,NW,315,5.4,5.4,61,0.00,,,0.00,WUHU216HW,2013-05-15 10:09:00,
2013-05-15 11:14:00,51.8,38.3,29.34,WNW,293,4.7,5.4,60,0.00,,,0.00,WUHU216HW,2013-05-15 10:14:00,
2013-05-15 11:19:00,51.7,38.2,29.34,WNW,293,3.6,4.7,60,0.00,,,0.00,WUHU216HW,2013-05-15 10:19:00,
2013-05-15 11:24:00,51.8,38.3,29.34,NW,315,4.5,4.7,60,0.00,,,0.00,WUHU216HW,2013-05-15 10:24:00,
2013-05-15 11:29:00,51.3,38.3,29.34,NW,315,3.8,5.4,61,0.00,,,0.00,WUHU216HW,2013-05-15 10:29:00,
2013-05-15 11:34:00,51.1,38.1,29.34,WNW,293,3.6,5.4,61,0.00,,,0.00,WUHU216HW,2013-05-15 10:34:00,
2013-05-15 11:39:00,51.7,38.6,29.34,WNW,293,4.3,4.3,61,0.00,,,0.00,WUHU216HW,2013-05-15 10:39:00,
2013-05-15 11:44:00,52.9,39.4,29.34,WNW,293,6.0,6.0,60,0.00,,,0.00,WUHU216HW,2013-05-15 10:44:00,
2013-05-15 11:49:00,52.7,39.2,29.33,WNW,293,2.0,6.0,60,0.00,,,0.00,WUHU216HW,2013-05-15 10:49:00,
2013-05-15 11:54:00,52.6,38.6,29.33,West,270,3.4,6.0,59,0.00,,,0.00,WUHU216HW,2013-05-15 10:54:00,
2013-05-15 11:59:00,52.9,39.0,29.33,NW,315,0.9,3.4,59,0.00,,,0.00,WUHU216HW,2013-05-15 10:59:00,
2013-05-15 12:04:00,53.5,39.1,29.33,NW,315,1.6,3.4,58,0.00,,,0.00,WUHU216HW,2013-05-15 11:04:00,
2013-05-15 12:09:00,54.2,39.7,29.33,NW,315,4.0,4.0,58,0.00,,,0.00,WUHU216HW,2013-05-15 11:09:00,
2013-05-15 12:14:00,53.8,38.4,29.32,West,270,3.4,4.0,56,0.00,,,0.00,WUHU216HW,2013-05-15 11:14:00,
2013-05-15 12:19:00,53.1,37.7,29.33,NNE,23,2.0,4.0,56,0.00,,,0.00,WUHU216HW,2013-05-15 11:19:00,
2013-05-15 12:24:00,52.4,38.0,29.32,North,0,1.3,3.4,58,0.00,,,0.00,WUHU216HW,2013-05-15 11:24:00,
2013-05-15 12:29:00,52.4,38.0,29.32,North,0,1.6,1.6,58,0.00,,,0.00,WUHU216HW,2013-05-15 11:29:00,
2013-05-15 12:34:00,52.9,37.6,29.32,WNW,293,4.5,4.5,56,0.00,,,0.00,WUHU216HW,2013-05-15 11:34:00,
2013-05-15 12:39:00,52.6,36.8,29.32,WNW,293,0.7,4.5,55,0.00,,,0.00,WUHU216HW,2013-05-15 11:39:00,
2013-05-15 12:44:00,52.6,37.7,29.32,NNW,338,2.5,4.5,57,0.00,,,0.00,WUHU216HW,2013-05-15 11:44:00,
2013-05-15 12:50:00,52.6,37.7,29.31,North,0,0.4,2.5,57,0.00,,,0.00,WUHU216HW,2013-05-15 11:50:00,
2013-05-15 12:55:00,53.6,38.7,29.31,WNW,293,3.6,4.3,57,0.00,,,0.00,WUHU216HW,2013-05-15 11:55:00,
2013-05-15 13:00:00,54.0,37.6,29.31,WNW,293,2.2,4.3,54,0.00,,,0.00,WUHU216HW,2013-05-15 12:00:00,
2013-05-15 13:05:00,54.0,36.7,29.31,WNW,293,7.8,7.8,52,0.00,,,0.00,WUHU216HW,2013-05-15 12:05:00,
2013-05-15 13:10:00,53.5,36.7,29.31,WNW,293,1.1,7.8,53,0.00,,,0.00,WUHU216HW,2013-05-15 12:10:00,
2013-05-15 13:15:00,53.5,36.7,29.31,WNW,293,3.6,3.6,53,0.00,,,0.00,WUHU216HW,2013-05-15 12:15:00,
2013-05-15 13:20:00,53.5,36.7,29.31,NNW,338,4.3,4.3,53,0.00,,,0.00,WUHU216HW,2013-05-15 12:20:00,
2013-05-15 13:25:00,53.6,36.4,29.31,NW,315,1.6,4.3,52,0.00,,,0.00,WUHU216HW,2013-05-15 12:25:00,
2013-05-15 13:30:00,53.6,36.4,29.31,NW,315,2.2,2.2,52,0.00,,,0.00,WUHU216HW,2013-05-15 12:30:00,
2013-05-15 13:35:00,53.6,36.9,29.30,NNW,338,1.1,2.2,53,0.00,,,0.00,WUHU216HW,2013-05-15 12:35:00,
2013-05-15 13:40:00,53.6,36.9,29.30,WNW,293,2.0,2.2,53,0.00,,,0.00,WUHU216HW,2013-05-15 12:40:00,
2013-05-15 13:45:00,53.6,36.4,29.30,NW,315,0.4,2.0,52,0.00,,,0.00,WUHU216HW,2013-05-15 12:45:00,
2013-05-15 13:50:00,53.6,36.4,29.30,WNW,293,4.7,4.7,52,0.00,,,0.00,WUHU216HW,2013-05-15 12:50:00,
2013-05-15 13:55:00,53.6,36.9,29.30,NNE,23,0.4,4.7,53,0.00,,,0.00,WUHU216HW,2013-05-15 12:55:00,
2013-05-15 14:01:00,53.8,36.5,29.30,NW,315,3.4,4.7,52,0.00,,,0.00,WUHU216HW,2013-05-15 13:01:00,
2013-05-15 14:06:00,53.8,36.5,29.30,NW,315,2.9,3.4,52,0.00,,,0.00,WUHU216HW,2013-05-15 13:06:00,
2013-05-15 14:11:00,54.0,36.7,29.30,WNW,293,3.8,3.8,52,0.00,,,0.00,WUHU216HW,2013-05-15 13:11:00,
2013-05-15 14:16:00,54.2,37.8,29.30,WNW,293,2.5,3.8,54,0.00,,,0.00,WUHU216HW,2013-05-15 13:16:00,
2013-05-15 14:21:00,54.5,37.7,29.30,WNW,293,1.6,3.8,53,0.00,,,0.00,WUHU216HW,2013-05-15 13:21:00,
2013-05-15 14:26:00,54.4,37.5,29.30,WNW,293,1.1,3.4,53,0.00,,,0.00,WUHU216HW,2013-05-15 13:26:00,
2013-05-15 14:31:00,54.2,37.4,29.30,NW,315,1.8,1.8,53,0.00,,,0.00,WUHU216HW,2013-05-15 13:31:00,
2013-05-15 14:36:00,53.5,38.1,29.30,NW,315,2.2,4.5,56,0.00,,,0.00,WUHU216HW,2013-05-15 13:36:00,
2013-05-15 14:41:00,53.5,39.1,29.29,NW,315,2.9,4.5,58,0.00,,,0.00,WUHU216HW,2013-05-15 13:41:00,
2013-05-15 14:46:00,53.6,39.3,29.30,WNW,293,1.1,2.9,58,0.00,,,0.00,WUHU216HW,2013-05-15 13:46:00,
2013-05-15 14:52:00,54.7,39.2,29.30,NW,315,4.0,4.0,56,0.00,,,0.00,WUHU216HW,2013-05-15 13:52:00,
2013-05-15 14:57:00,54.0,38.6,29.29,North,0,0.9,4.0,56,0.00,,,0.00,WUHU216HW,2013-05-15 13:57:00,
2013-05-15 15:02:00,53.6,39.3,29.29,WNW,293,0.9,4.0,58,0.00,,,0.00,WUHU216HW,2013-05-15 14:02:00,
2013-05-15 15:07:00,53.3,40.1,29.29,WNW,293,1.3,3.6,61,0.00,,,0.00,WUHU216HW,2013-05-15 14:07:00,
2013-05-15 15:12:00,53.3,41.0,29.29,WNW,293,1.6,3.6,63,0.00,,,0.00,WUHU216HW,2013-05-15 14:12:00,
2013-05-15 15:17:00,53.6,41.3,29.29,WSW,248,0.0,1.6,63,0.00,,,0.00,WUHU216HW,2013-05-15 14:17:00,
2013-05-15 15:22:00,54.5,42.2,29.29,WNW,293,0.0,1.6,63,0.00,,,0.00,WUHU216HW,2013-05-15 14:22:00,
2013-05-15 15:27:00,53.6,41.3,29.29,NW,315,0.0,2.0,63,0.00,,,0.00,WUHU216HW,2013-05-15 14:27:00,
2013-05-15 15:32:00,52.6,41.1,29.29,NW,315,1.8,2.0,65,0.01,,,0.01,WUHU216HW,2013-05-15 14:32:00,
2013-05-15 15:37:00,52.2,42.4,29.29,NW,315,3.4,3.4,69,0.01,,,0.01,WUHU216HW,2013-05-15 14:37:00,
2013-05-15 15:42:00,53.3,43.7,29.29,South,180,3.1,3.4,70,0.01,,,0.01,WUHU216HW,2013-05-15 14:42:00,
2013-05-15 15:47:00,54.7,44.4,29.29,NW,315,2.9,3.1,68,0.01,,,0.01,WUHU216HW,2013-05-15 14:47:00,
2013-05-15 15:52:00,55.1,43.5,29.29,NW,315,5.1,5.1,65,0.01,,,0.01,WUHU216HW,2013-05-15 14:52:00,
2013-05-15 15:57:00,54.4,42.0,29.29,WNW,293,5.4,5.4,63,0.01,,,0.01,WUHU216HW,2013-05-15 14:57:00,
2013-05-15 16:02:00,53.8,42.3,29.29,NW,315,1.3,5.4,65,0.01,,,0.01,WUHU216HW,2013-05-15 15:02:00,
2013-05-15 16:07:00,53.5,40.3,29.29,NNW,338,5.6,5.6,61,0.01,,,0.01,WUHU216HW,2013-05-15 15:07:00,
2013-05-15 16:12:00,53.1,39.2,29.29,NW,315,2.9,5.6,59,0.01,,,0.01,WUHU216HW,2013-05-15 15:12:00,
2013-05-15 16:17:00,53.1,39.2,29.29,NW,315,8.5,8.5,59,0.01,,,0.01,WUHU216HW,2013-05-15 15:17:00,
2013-05-15 16:22:00,54.2,40.6,29.29,SE,135,4.3,8.5,60,0.01,,,0.01,WUHU216HW,2013-05-15 15:22:00,
2013-05-15 16:27:00,54.5,40.1,29.29,NW,315,4.0,6.3,58,0.01,,,0.01,WUHU216HW,2013-05-15 15:27:00,
2013-05-15 16:32:00,54.4,40.3,29.29,NW,315,7.8,7.8,59,0.00,,,0.01,WUHU216HW,2013-05-15 15:32:00,
2013-05-15 16:37:00,54.4,40.3,29.29,WNW,293,3.4,7.8,59,0.00,,,0.01,WUHU216HW,2013-05-15 15:37:00,
2013-05-15 16:43:00,54.5,40.1,29.29,NW,315,5.4,7.8,58,0.00,,,0.01,WUHU216HW,2013-05-15 15:43:00,
2013-05-15 16:48:00,54.7,40.1,29.29,WNW,293,4.0,5.4,58,0.00,,,0.01,WUHU216HW,2013-05-15 15:48:00,
2013-05-15 16:53:00,55.8,42.1,29.29,WSW,248,4.0,5.4,60,0.00,,,0.01,WUHU216HW,2013-05-15 15:53:00,
2013-05-15 16:58:00,55.6,41.1,29.29,WSW,248,3.1,6.5,58,0.00,,,0.01,WUHU216HW,2013-05-15 15:58:00,
2013-05-15 17:03:00,55.6,41.5,29.29,WNW,293,5.4,6.5,59,0.00,,,0.01,WUHU216HW,2013-05-15 16:03:00,
2013-05-15 17:08:00,55.3,41.1,29.29,NW,315,3.4,5.4,59,0.00,,,0.01,WUHU216HW,2013-05-15 16:08:00,
2013-05-15 17:13:00,55.4,40.9,29.29,NW,315,7.6,7.6,58,0.00,,,0.01,WUHU216HW,2013-05-15 16:13:00,
2013-05-15 17:18:00,55.6,41.1,29.29,NW,315,4.0,7.6,58,0.00,,,0.01,WUHU216HW,2013-05-15 16:18:00,
2013-05-15 17:23:00,55.1,40.5,29.29,WNW,293,1.1,5.8,58,0.00,,,0.01,WUHU216HW,2013-05-15 16:23:00,
2013-05-15 17:28:00,54.4,39.9,29.29,NW,315,1.8,4.0,58,0.00,,,0.01,WUHU216HW,2013-05-15 16:28:00,
2013-05-15 17:33:00,53.6,39.3,29.29,NNW,338,2.2,4.5,58,0.00,,,0.01,WUHU216HW,2013-05-15 16:33:00,
2013-05-15 17:38:00,54.0,40.0,29.29,WNW,293,6.3,6.3,59,0.00,,,0.01,WUHU216HW,2013-05-15 16:38:00,
2013-05-15 17:43:00,54.4,39.9,29.29,NNE,23,3.4,6.3,58,0.00,,,0.01,WUHU216HW,2013-05-15 16:43:00,
2013-05-15 17:48:00,54.7,39.7,29.30,West,270,4.0,6.3,57,0.00,,,0.01,WUHU216HW,2013-05-15 16:48:00,
2013-05-15 17:53:00,54.2,39.7,29.30,WNW,293,3.4,4.0,58,0.00,,,0.01,WUHU216HW,2013-05-15 16:53:00,
2013-05-15 17:58:00,53.8,38.4,29.30,NW,315,4.5,4.5,56,0.00,,,0.01,WUHU216HW,2013-05-15 16:58:00,
2013-05-15 18:03:00,53.5,39.1,29.30,WNW,293,1.1,4.5,58,0.00,,,0.01,WUHU216HW,2013-05-15 17:03:00,
2013-05-15 18:08:00,53.5,40.3,29.29,WNW,293,0.4,4.5,61,0.00,,,0.01,WUHU216HW,2013-05-15 17:08:00,
2013-05-15 18:13:00,53.3,39.8,29.30,SSE,158,1.1,1.1,60,0.00,,,0.01,WUHU216HW,2013-05-15 17:13:00,
2013-05-15 18:18:00,53.3,39.8,29.30,WNW,293,4.0,4.0,60,0.00,,,0.01,WUHU216HW,2013-05-15 17:18:00,
2013-05-15 18:23:00,53.1,40.0,29.30,WNW,293,1.3,4.0,61,0.00,,,0.01,WUHU216HW,2013-05-15 17:23:00,
2013-05-15 18:28:00,53.8,40.7,29.30,North,0,2.2,4.0,61,0.00,,,0.01,WUHU216HW,2013-05-15 17:28:00,
2013-05-15 18:33:00,53.8,40.3,29.30,NW,315,3.4,3.4,60,0.00,,,0.01,WUHU216HW,2013-05-15 17:33:00,
2013-05-15 18:38:00,53.6,39.7,29.30,NNW,338,4.3,4.3,59,0.00,,,0.01,WUHU216HW,2013-05-15 17:38:00,
2013-05-15 18:43:00,54.0,40.0,29.30,North,0,6.3,6.3,59,0.00,,,0.01,WUHU216HW,2013-05-15 17:43:00,
2013-05-15 18:49:00,53.8,39.9,29.31,NW,315,3.1,6.3,59,0.00,,,0.01,WUHU216HW,2013-05-15 17:49:00,
2013-05-15 18:54:00,53.8,39.9,29.30,NNW,338,3.1,6.3,59,0.00,,,0.01,WUHU216HW,2013-05-15 17:54:00,
2013-05-15 18:59:00,54.0,40.0,29.30,WNW,293,3.4,3.4,59,0.00,,,0.01,WUHU216HW,2013-05-15 17:59:00,
2013-05-15 19:04:00,53.6,40.1,29.31,NNW,338,6.0,6.0,60,0.00,,,0.01,WUHU216HW,2013-05-15 18:04:00,
2013-05-15 19:09:00,53.3,39.8,29.31,NW,315,4.7,6.0,60,0.00,,,0.01,WUHU216HW,2013-05-15 18:09:00,
2013-05-15 19:14:00,52.9,39.4,29.31,South,180,2.5,6.0,60,0.00,,,0.01,WUHU216HW,2013-05-15 18:14:00,
2013-05-15 19:19:00,52.7,39.6,29.31,East,90,1.3,4.7,61,0.00,,,0.01,WUHU216HW,2013-05-15 18:19:00,
2013-05-15 19:24:00,52.6,39.5,29.31,NW,315,3.4,3.4,61,0.00,,,0.01,WUHU216HW,2013-05-15 18:24:00,
2013-05-15 19:29:00,52.4,39.3,29.31,NNW,338,2.0,3.4,61,0.00,,,0.01,WUHU216HW,2013-05-15 18:29:00,
2013-05-15 19:34:00,52.2,39.2,29.32,SSW,203,3.4,3.4,61,0.00,,,0.01,WUHU216HW,2013-05-15 18:34:00,
2013-05-15 19:39:00,51.5,38.4,29.32,North,0,2.0,3.4,61,0.00,,,0.01,WUHU216HW,2013-05-15 18:39:00,
2013-05-15 19:44:00,50.9,38.3,29.32,SSW,203,2.5,3.4,62,0.00,,,0.01,WUHU216HW,2013-05-15 18:44:00,
2013-05-15 19:49:00,50.6,38.8,29.32,NW,315,3.8,3.8,64,0.00,,,0.01,WUHU216HW,2013-05-15 18:49:00,
2013-05-15 19:54:00,50.4,38.6,29.32,SE,135,1.8,3.8,64,0.00,,,0.01,WUHU216HW,2013-05-15 18:54:00,
2013-05-15 19:59:00,50.0,38.4,29.32,WNW,293,3.4,3.8,64,0.00,,,0.01,WUHU216HW,2013-05-15 18:59:00,
2013-05-15 20:04:00,49.9,38.2,29.32,SE,135,3.1,3.4,64,0.00,,,0.01,WUHU216HW,2013-05-15 19:04:00,
2013-05-15 20:09:00,49.9,38.2,29.32,NE,45,0.9,3.4,64,0.00,,,0.01,WUHU216HW,2013-05-15 19:09:00,
2013-05-15 20:14:00,49.5,38.6,29.33,SSE,158,2.0,3.1,66,0.00,,,0.01,WUHU216HW,2013-05-15 19:14:00,
2013-05-15 20:19:00,49.3,38.8,29.33,South,180,2.0,2.0,67,0.00,,,0.01,WUHU216HW,2013-05-15 19:19:00,
2013-05-15 20:24:00,49.0,38.4,29.33,SW,225,1.6,2.0,67,0.00,,,0.01,WUHU216HW,2013-05-15 19:24:00,
2013-05-15 20:30:00,48.2,38.2,29.33,WNW,293,2.2,5.1,68,0.00,,,0.01,WUHU216HW,2013-05-15 19:30:00,
2013-05-15 20:35:00,48.1,38.0,29.33,WNW,293,1.8,5.1,68,0.00,,,0.01,WUHU216HW,2013-05-15 19:35:00,
2013-05-15 20:40:00,47.9,38.2,29.33,WNW,293,1.8,2.2,69,0.00,,,0.01,WUHU216HW,2013-05-15 19:40:00,
2013-05-15 20:45:00,47.5,38.3,29.33,SE,135,1.1,1.8,70,0.00,,,0.01,WUHU216HW,2013-05-15 19:45:00,
2013-05-15 20:50:00,47.3,38.1,29.33,SE,135,2.2,2.2,70,0.00,,,0.01,WUHU216HW,2013-05-15 19:50:00,
2013-05-15 20:55:00,47.2,38.3,29.34,NW,315,1.8,2.2,71,0.00,,,0.01,WUHU216HW,2013-05-15 19:55:00,
2013-05-15 21:00:00,46.8,38.3,29.34,NNW,338,1.8,2.2,72,0.00,,,0.01,WUHU216HW,2013-05-15 20:00:00,
2013-05-15 21:05:00,46.8,38.3,29.34,West,270,3.6,3.6,72,0.00,,,0.01,WUHU216HW,2013-05-15 20:05:00,
2013-05-15 21:10:00,46.4,38.0,29.34,WNW,293,4.0,4.0,72,0.00,,,0.01,WUHU216HW,2013-05-15 20:10:00,
2013-05-15 21:15:00,46.3,37.8,29.34,NW,315,1.1,4.0,72,0.00,,,0.01,WUHU216HW,2013-05-15 20:15:00,
2013-05-15 21:20:00,45.9,37.7,29.34,WNW,293,1.1,4.0,73,0.00,,,0.01,WUHU216HW,2013-05-15 20:20:00,
2013-05-15 21:25:00,45.5,37.7,29.34,WNW,293,0.7,1.8,74,0.00,,,0.01,WUHU216HW,2013-05-15 20:25:00,
2013-05-15 21:30:00,45.4,37.2,29.34,WNW,293,0.4,1.8,73,0.00,,,0.01,WUHU216HW,2013-05-15 20:30:00,
2013-05-15 21:35:00,45.0,37.2,29.35,WNW,293,0.4,0.7,74,0.00,,,0.01,WUHU216HW,2013-05-15 20:35:00,
2013-05-15 21:40:00,44.8,37.0,29.35,NNW,338,2.7,2.7,74,0.00,,,0.01,WUHU216HW,2013-05-15 20:40:00,
2013-05-15 21:45:00,44.8,37.0,29.36,North,0,0.4,2.7,74,0.00,,,0.01,WUHU216HW,2013-05-15 20:45:00,
2013-05-15 21:50:00,44.8,37.0,29.36,West,270,1.1,2.7,74,0.00,,,0.01,WUHU216HW,2013-05-15 20:50:00,
2013-05-15 21:55:00,44.6,37.2,29.36,North,0,0.7,1.8,75,0.00,,,0.01,WUHU216HW,2013-05-15 20:55:00,
2013-05-15 22:00:00,44.3,36.8,29.36,WNW,293,2.5,2.5,75,0.00,,,0.01,WUHU216HW,2013-05-15 21:00:00,
2013-05-15 22:05:00,44.3,37.2,29.36,WNW,293,0.4,2.5,76,0.00,,,0.01,WUHU216HW,2013-05-15 21:05:00,
2013-05-15 22:10:00,44.1,37.0,29.36,WNW,293,1.1,2.5,76,0.00,,,0.01,WUHU216HW,2013-05-15 21:10:00,
2013-05-15 22:15:00,43.9,36.8,29.37,WNW,293,1.3,1.3,76,0.00,,,0.01,WUHU216HW,2013-05-15 21:15:00,
2013-05-15 22:20:00,43.9,37.2,29.37,WNW,293,0.7,1.8,77,0.00,,,0.01,WUHU216HW,2013-05-15 21:20:00,
2013-05-15 22:25:00,43.7,37.0,29.37,WNW,293,1.1,1.8,77,0.00,,,0.01,WUHU216HW,2013-05-15 21:25:00,
2013-05-15 22:30:00,43.9,37.2,29.36,WNW,293,1.1,1.1,77,0.00,,,0.01,WUHU216HW,2013-05-15 21:30:00,
2013-05-15 22:35:00,43.7,37.4,29.36,WNW,293,2.0,2.0,78,0.00,,,0.01,WUHU216HW,2013-05-15 21:35:00,
2013-05-15 22:40:00,43.7,37.4,29.36,WNW,293,1.1,2.2,78,0.00,,,0.01,WUHU216HW,2013-05-15 21:40:00,
2013-05-15 22:45:00,43.7,37.4,29.36,West,270,0.4,2.2,78,0.00,,,0.01,WUHU216HW,2013-05-15 21:45:00,
2013-05-15 22:50:00,43.7,37.4,29.37,South,180,0.2,1.1,78,0.00,,,0.01,WUHU216HW,2013-05-15 21:50:00,
2013-05-15 22:55:00,43.7,37.4,29.37,West,270,0.0,0.4,78,0.00,,,0.01,WUHU216HW,2013-05-15 21:55:00,
2013-05-15 23:00:00,43.6,36.8,29.37,West,270,0.0,0.2,77,0.00,,,0.01,WUHU216HW,2013-05-15 22:00:00,
2013-05-15 23:05:00,43.6,36.8,29.37,West,270,0.0,0.0,77,0.00,,,0.01,WUHU216HW,2013-05-15 22:05:00,
2013-05-15 23:10:00,43.6,36.8,29.37,West,270,0.0,0.0,77,0.00,,,0.01,WUHU216HW,2013-05-15 22:10:00,
2013-05-15 23:16:00,43.4,36.6,29.37,West,270,0.0,0.0,77,0.00,,,0.01,WUHU216HW,2013-05-15 22:16:00,
2013-05-15 23:21:00,42.8,36.1,29.37,West,270,0.0,0.0,77,0.00,,,0.01,WUHU216HW,2013-05-15 22:21:00,
2013-05-15 23:26:00,42.8,36.5,29.37,West,270,0.0,0.0,78,0.00,,,0.01,WUHU216HW,2013-05-15 22:26:00,
2013-05-15 23:31:00,42.8,36.5,29.37,West,270,0.0,0.0,78,0.00,,,0.01,WUHU216HW,2013-05-15 22:31:00,
2013-05-15 23:36:00,42.7,36.3,29.37,West,270,0.0,0.0,78,0.00,,,0.01,WUHU216HW,2013-05-15 22:36:00,
2013-05-15 23:41:00,42.5,36.1,29.37,West,270,0.0,0.0,78,0.00,,,0.01,WUHU216HW,2013-05-15 22:41:00,
2013-05-15 23:46:00,42.5,36.4,29.37,WSW,248,0.0,0.0,79,0.00,,,0.01,WUHU216HW,2013-05-15 22:46:00,
2013-05-15 23:51:00,42.5,36.4,29.37,WSW,248,0.0,0.0,79,0.00,,,0.01,WUHU216HW,2013-05-15 22:51:00,
2013-05-15 23:57:00,42.5,36.4,29.38,South,180,0.4,0.4,79,0.00,,,0.01,WUHU216HW,2013-05-15 22:57:00,